createdAt,value
2018-11-10T00:00:44.772Z,40.83
2018-11-10T00:03:23.841Z,47.15
2018-11-10T00:06:02.933Z,41.20
2018-11-10T00:08:41.427Z,48.48
2018-11-10T00:11:21.339Z,48.40
2018-11-10T00:14:01.132Z,40.33
2018-11-10T00:16:41.829Z,39.27
2018-11-10T00:19:22.140Z,43.30
2018-11-10T00:22:01.432Z,44.18
2018-11-10T00:24:41.545Z,45.75
2018-11-10T00:27:20.213Z,39.35
2018-11-10T00:29:59.427Z,58.80
2018-11-10T00:32:38.945Z,36.05
2018-11-10T00:35:18.987Z,42.15
2018-11-10T00:37:56.633Z,45.88
2018-11-10T00:40:36.632Z,45.33
2018-11-10T00:43:16.337Z,43.55
2018-11-10T00:45:56.153Z,45.10
2018-11-10T00:48:35.122Z,45.88
2018-11-10T00:51:16.636Z,46.68
2018-11-10T00:53:55.528Z,40.08
2018-11-10T00:56:35.817Z,38.88
2018-11-10T00:59:16.633Z,43.10
2018-11-10T01:01:56.202Z,43.30
2018-11-10T01:04:35.415Z,50.00
2018-11-10T01:07:15.387Z,43.75
2018-11-10T01:09:55.228Z,51.18
2018-11-10T01:12:34.070Z,48.25
2018-11-10T01:15:14.812Z,42.78
2018-11-10T01:17:56.299Z,50.92
2018-11-10T01:20:35.368Z,48.85
2018-11-10T01:23:16.632Z,47.08
2018-11-10T01:25:56.473Z,44.38
2018-11-10T01:28:34.466Z,43.95
2018-11-10T01:31:13.984Z,47.35
2018-11-10T01:33:53.901Z,39.23
2018-11-10T01:36:31.992Z,46.92
2018-11-10T01:39:12.019Z,37.90
2018-11-10T01:41:51.645Z,51.42
2018-11-10T01:44:30.841Z,47.85
2018-11-10T01:47:13.754Z,45.58
2018-11-10T01:49:52.169Z,49.63
2018-11-10T01:52:33.063Z,55.43
2018-11-10T01:55:13.053Z,49.70
2018-11-10T01:57:52.772Z,49.70
2018-11-10T02:00:32.838Z,42.88
2018-11-10T02:03:12.405Z,52.83
2018-11-10T02:05:51.423Z,50.03
2018-11-10T02:08:30.463Z,44.25
2018-11-10T02:11:09.727Z,53.65
2018-11-10T02:13:50.719Z,48.73
2018-11-10T02:16:30.788Z,44.08
2018-11-10T02:19:11.131Z,50.20
2018-11-10T02:21:50.697Z,45.28
2018-11-10T02:24:32.637Z,51.15
2018-11-10T02:27:16.276Z,48.55
2018-11-10T02:29:56.633Z,48.48
2018-11-10T02:32:37.834Z,45.05
2018-11-10T02:35:17.429Z,65.05
2018-11-10T02:37:55.944Z,49.13
2018-11-10T02:40:37.762Z,48.02
2018-11-10T02:43:16.632Z,46.13
2018-11-10T02:45:58.090Z,43.92
2018-11-10T02:48:38.760Z,56.37
2018-11-10T02:51:19.546Z,43.35
2018-11-10T02:53:57.491Z,46.18
2018-11-10T02:56:37.705Z,43.52
2018-11-10T02:59:16.631Z,41.25
2018-11-10T03:01:56.637Z,52.93
2018-11-10T03:04:35.158Z,42.03
2018-11-10T03:07:14.546Z,48.17
2018-11-10T03:09:54.113Z,38.05
2018-11-10T03:12:34.533Z,42.35
2018-11-10T03:15:13.822Z,45.35
2018-11-10T03:17:51.987Z,41.15
2018-11-10T03:20:33.307Z,41.90
2018-11-10T03:23:03.621Z,47.25
2018-11-10T03:25:38.825Z,45.08
2018-11-10T03:28:16.634Z,45.08
2018-11-10T03:30:55.422Z,46.28
2018-11-10T03:33:36.632Z,52.53
2018-11-10T03:36:17.106Z,40.38
2018-11-10T03:38:53.733Z,41.08
2018-11-10T03:41:33.312Z,49.27
2018-11-10T03:44:14.805Z,45.25
2018-11-10T03:46:49.093Z,48.33
2018-11-10T03:49:28.419Z,46.08
2018-11-10T03:52:09.004Z,50.78
2018-11-10T03:54:48.471Z,57.43
2018-11-10T03:57:27.484Z,46.42
2018-11-10T04:00:06.106Z,49.45
2018-11-10T04:02:44.368Z,47.80
2018-11-10T04:05:19.559Z,54.63
2018-11-10T04:07:58.355Z,51.92
2018-11-10T04:10:38.048Z,47.62
2018-11-10T04:13:18.912Z,51.45
2018-11-10T04:15:58.952Z,49.90
2018-11-10T04:18:40.193Z,52.03
2018-11-10T04:21:19.965Z,45.83
2018-11-10T04:23:59.498Z,48.87
2018-11-10T04:26:37.061Z,60.67
2018-11-10T04:29:16.583Z,50.55
2018-11-10T04:31:54.476Z,47.20
2018-11-10T04:34:34.043Z,52.90
2018-11-10T04:37:13.333Z,51.92
2018-11-10T04:39:55.425Z,48.15
2018-11-10T04:42:34.665Z,42.70
2018-11-10T04:45:14.656Z,43.33
2018-11-10T04:47:53.624Z,53.42
2018-11-10T04:50:33.339Z,49.55
2018-11-10T04:53:13.333Z,48.90
2018-11-10T04:55:53.076Z,53.92
2018-11-10T04:58:33.766Z,55.10
2018-11-10T05:01:13.549Z,53.85
2018-11-10T05:03:56.633Z,51.20
2018-11-10T05:06:35.614Z,50.40
2018-11-10T05:09:16.630Z,54.25
2018-11-10T05:11:55.921Z,59.85
2018-11-10T05:14:36.014Z,59.50
2018-11-10T05:17:16.633Z,56.30
2018-11-10T05:19:56.470Z,44.58
2018-11-10T05:22:35.687Z,48.85
2018-11-10T05:25:16.406Z,50.83
2018-11-10T05:27:55.545Z,53.20
2018-11-10T05:30:34.034Z,51.35
2018-11-10T05:33:13.452Z,47.00
2018-11-10T05:35:53.231Z,46.33
2018-11-10T05:38:33.285Z,54.45
2018-11-10T05:41:13.630Z,47.85
2018-11-10T05:43:53.247Z,42.50
2018-11-10T05:46:32.911Z,52.78
2018-11-10T05:49:12.927Z,47.38
2018-11-10T05:51:51.966Z,52.78
2018-11-10T05:54:33.264Z,55.45
2018-11-10T05:57:11.542Z,49.20
2018-11-10T05:59:50.791Z,53.08
2018-11-10T06:02:30.157Z,53.17
2018-11-10T06:05:14.552Z,55.40
2018-11-10T06:07:53.763Z,50.80
2018-11-10T06:10:31.714Z,43.60
2018-11-10T06:13:12.049Z,44.85
2018-11-10T06:15:52.903Z,54.08
2018-11-10T06:18:33.360Z,60.38
2018-11-10T06:21:13.198Z,53.35
2018-11-10T06:23:52.140Z,50.28
2018-11-10T06:26:32.481Z,53.50
2018-11-10T06:29:11.525Z,52.15
2018-11-10T06:31:50.335Z,57.50
2018-11-10T06:34:28.405Z,66.15
2018-11-10T06:37:08.970Z,51.18
2018-11-10T06:39:46.633Z,59.75
2018-11-10T06:42:26.429Z,62.90
2018-11-10T06:45:06.631Z,51.42
2018-11-10T06:47:46.631Z,48.28
2018-11-10T06:50:26.631Z,46.37
2018-11-10T06:53:04.775Z,59.27
2018-11-10T06:55:45.512Z,53.13
2018-11-10T06:58:24.902Z,52.88
2018-11-10T07:01:05.692Z,57.13
2018-11-10T07:03:45.681Z,52.13
2018-11-10T07:06:24.701Z,50.35
2018-11-10T07:09:06.319Z,48.17
2018-11-10T07:11:46.209Z,47.17
2018-11-10T07:14:26.629Z,47.88
2018-11-10T07:17:06.629Z,47.93
2018-11-10T07:19:46.632Z,54.77
2018-11-10T07:22:26.630Z,45.98
2018-11-10T07:25:05.733Z,48.02
2018-11-10T07:27:46.630Z,48.40
2018-11-10T07:30:26.631Z,43.52
2018-11-10T07:33:06.541Z,52.53
2018-11-10T07:35:50.556Z,47.00
2018-11-10T07:38:30.173Z,47.15
2018-11-10T07:41:10.514Z,53.60
2018-11-10T07:43:50.056Z,46.85
2018-11-10T07:46:29.696Z,46.23
2018-11-10T07:49:08.006Z,48.52
2018-11-10T07:51:46.632Z,47.33
2018-11-10T07:54:25.676Z,44.10
2018-11-10T07:57:06.414Z,50.65
2018-11-10T07:59:46.631Z,48.98
2018-11-10T08:02:26.619Z,43.78
2018-11-10T08:05:06.263Z,51.55
2018-11-10T08:07:46.630Z,42.38
2018-11-10T08:10:26.546Z,50.92
2018-11-10T08:13:04.812Z,53.85
2018-11-10T08:15:44.054Z,46.00
2018-11-10T08:18:24.030Z,63.17
2018-11-10T08:21:02.362Z,45.08
2018-11-10T08:23:43.174Z,45.28
2018-11-10T08:26:22.444Z,47.35
2018-11-10T08:29:02.359Z,45.73
2018-11-10T08:31:43.776Z,56.15
2018-11-10T08:34:23.366Z,51.95
2018-11-10T08:37:03.184Z,41.70
2018-11-10T08:39:44.150Z,43.70
2018-11-10T08:42:21.925Z,45.00
2018-11-10T08:45:03.556Z,44.42
2018-11-10T08:47:42.189Z,43.48
2018-11-10T08:50:23.766Z,52.03
2018-11-10T08:53:02.311Z,41.92
2018-11-10T08:55:43.274Z,51.20
2018-11-10T08:58:21.967Z,47.73
2018-11-10T09:01:00.134Z,49.53
2018-11-10T09:03:38.750Z,43.70
2018-11-10T09:06:18.089Z,43.73
2018-11-10T09:08:56.381Z,46.30
2018-11-10T09:11:36.630Z,51.33
2018-11-10T09:14:15.665Z,41.63
2018-11-10T09:16:55.432Z,41.18
2018-11-10T09:19:35.174Z,55.95
2018-11-10T09:22:16.336Z,45.63
2018-11-10T09:24:56.130Z,47.23
2018-11-10T09:27:35.946Z,45.50
2018-11-10T09:30:16.629Z,54.75
2018-11-10T09:32:57.781Z,50.23
2018-11-10T09:35:36.630Z,44.48
2018-11-10T09:38:16.287Z,43.30
2018-11-10T09:40:54.428Z,48.10
2018-11-10T09:43:33.976Z,46.35
2018-11-10T09:46:13.888Z,47.90
2018-11-10T09:48:52.231Z,41.95
2018-11-10T09:51:32.469Z,45.92
2018-11-10T09:54:12.859Z,49.05
2018-11-10T09:56:52.480Z,52.48
2018-11-10T09:59:31.447Z,43.05
2018-11-10T10:02:11.723Z,50.70
2018-11-10T10:04:51.806Z,45.63
2018-11-10T10:07:33.248Z,41.55
2018-11-10T10:10:12.440Z,53.70
2018-11-10T10:12:52.507Z,42.62
2018-11-10T10:15:32.321Z,42.20
2018-11-10T10:18:12.887Z,39.70
2018-11-10T10:20:52.277Z,43.05
2018-11-10T10:23:33.545Z,44.13
2018-11-10T10:26:14.786Z,40.15
2018-11-10T10:28:54.683Z,46.98
2018-11-10T10:31:33.741Z,42.55
2018-11-10T10:34:14.158Z,49.90
2018-11-10T10:36:54.779Z,46.20
2018-11-10T10:39:34.645Z,44.38
2018-11-10T10:42:13.713Z,43.08
2018-11-10T10:44:53.076Z,48.85
2018-11-10T10:47:33.844Z,37.13
2018-11-10T10:50:12.960Z,48.28
2018-11-10T10:52:52.801Z,38.20
2018-11-10T10:55:33.018Z,42.93
2018-11-10T10:58:13.113Z,49.53
2018-11-10T11:00:54.850Z,44.67
2018-11-10T11:03:39.098Z,46.30
2018-11-10T11:06:18.285Z,45.95
2018-11-10T11:08:58.818Z,45.45
2018-11-10T11:11:38.491Z,43.95
2018-11-10T11:14:18.959Z,49.58
2018-11-10T11:16:58.297Z,40.48
2018-11-10T11:19:39.489Z,49.10
2018-11-10T11:22:21.056Z,44.95
2018-11-10T11:25:01.202Z,42.13
2018-11-10T11:27:41.535Z,41.75
2018-11-10T11:30:20.933Z,39.65
2018-11-10T11:33:00.674Z,42.00
2018-11-10T11:35:40.768Z,44.93
2018-11-10T11:38:20.557Z,42.15
2018-11-10T11:41:01.344Z,43.60
2018-11-10T11:43:40.563Z,41.83
2018-11-10T11:46:19.907Z,46.50
2018-11-10T11:49:00.548Z,43.58
2018-11-10T11:51:40.463Z,45.98
2018-11-10T11:54:07.983Z,47.27
2018-11-10T11:56:35.847Z,37.45
2018-11-10T11:59:14.865Z,40.60
2018-11-10T12:01:45.583Z,43.85
2018-11-10T12:04:19.289Z,42.58
2018-11-10T12:06:47.803Z,48.68
2018-11-10T12:09:16.137Z,47.88
2018-11-10T12:11:44.901Z,45.10
2018-11-10T12:14:13.580Z,47.38
2018-11-10T12:16:45.939Z,47.20
2018-11-10T12:19:13.938Z,43.50
2018-11-10T12:21:46.198Z,46.70
2018-11-10T12:24:21.607Z,47.20
2018-11-10T12:27:01.603Z,47.83
2018-11-10T12:29:41.095Z,53.48
2018-11-10T12:32:20.688Z,47.17
2018-11-10T12:34:58.780Z,56.83
2018-11-10T12:37:36.628Z,39.48
2018-11-10T12:40:17.585Z,41.63
2018-11-10T12:42:57.978Z,44.50
2018-11-10T12:45:36.688Z,41.68
2018-11-10T12:48:15.784Z,44.67
2018-11-10T12:50:56.629Z,47.58
2018-11-10T12:53:34.082Z,41.05
2018-11-10T12:56:04.496Z,46.42
2018-11-10T12:58:43.557Z,49.50
2018-11-10T13:01:23.396Z,45.83
2018-11-10T13:04:02.185Z,50.12
2018-11-10T13:06:31.066Z,48.90
2018-11-10T13:09:09.904Z,47.70
2018-11-10T13:11:49.373Z,51.20
2018-11-10T13:14:28.345Z,53.65
2018-11-10T13:17:02.948Z,51.53
2018-11-10T13:19:40.987Z,51.88
2018-11-10T13:22:20.857Z,44.50
2018-11-10T13:24:59.798Z,51.28
2018-11-10T13:27:42.765Z,54.95
2018-11-10T13:30:21.804Z,52.45
2018-11-10T13:32:58.346Z,48.13
2018-11-10T13:35:38.164Z,51.18
2018-11-10T13:38:18.006Z,55.25
2018-11-10T13:40:59.122Z,43.78
2018-11-10T13:43:41.350Z,50.75
2018-11-10T13:46:19.981Z,45.23
2018-11-10T13:49:00.225Z,49.77
2018-11-10T13:51:39.989Z,45.88
2018-11-10T13:54:18.010Z,49.70
2018-11-10T13:56:57.847Z,44.05
2018-11-10T13:59:37.862Z,45.43
2018-11-10T14:02:10.102Z,52.05
2018-11-10T14:04:44.548Z,55.08
2018-11-10T14:07:16.955Z,54.30
2018-11-10T14:09:56.331Z,47.55
2018-11-10T14:12:36.485Z,48.50
2018-11-10T14:15:13.258Z,67.58
2018-11-10T14:17:43.378Z,54.73
2018-11-10T14:20:23.025Z,44.95
2018-11-10T14:23:03.092Z,48.28
2018-11-10T14:25:42.279Z,48.02
2018-11-10T14:28:18.944Z,51.63
2018-11-10T14:30:53.412Z,54.95
2018-11-10T14:33:31.092Z,48.35
2018-11-10T14:36:09.397Z,58.25
2018-11-10T14:38:48.657Z,54.00
2018-11-10T14:41:26.629Z,50.28
2018-11-10T14:44:08.694Z,55.78
2018-11-10T14:46:47.431Z,50.58
2018-11-10T14:49:27.506Z,53.40
2018-11-10T14:52:07.893Z,48.20
2018-11-10T14:54:47.737Z,53.50
2018-11-10T14:57:26.631Z,48.55
2018-11-10T15:00:04.694Z,49.63
2018-11-10T15:02:44.589Z,47.30
2018-11-10T15:05:25.831Z,43.50
2018-11-10T15:08:02.847Z,55.67
2018-11-10T15:10:44.561Z,60.75
2018-11-10T15:13:24.229Z,51.58
2018-11-10T15:16:04.045Z,52.10
2018-11-10T15:18:44.333Z,52.73
2018-11-10T15:21:19.850Z,48.20
2018-11-10T15:23:56.629Z,58.38
2018-11-10T15:26:35.358Z,54.00
2018-11-10T15:29:12.901Z,49.60
2018-11-10T15:31:50.644Z,56.25
2018-11-10T15:34:30.964Z,52.80
2018-11-10T15:37:11.577Z,48.87
2018-11-10T15:39:50.197Z,59.20
2018-11-10T15:42:20.509Z,48.50
2018-11-10T15:44:59.300Z,57.60
2018-11-10T15:47:38.736Z,68.10
2018-11-10T15:50:16.574Z,56.45
2018-11-10T15:52:54.877Z,64.65
2018-11-10T15:55:26.630Z,63.13
2018-11-10T15:58:06.641Z,59.73
2018-11-10T16:00:45.453Z,52.30
2018-11-10T16:03:23.969Z,68.55
2018-11-10T16:06:05.709Z,58.60
2018-11-10T16:08:46.630Z,49.30
2018-11-10T16:11:25.141Z,59.90
2018-11-10T16:14:03.232Z,45.15
2018-11-10T16:16:42.451Z,60.23
2018-11-10T16:19:22.619Z,55.05
2018-11-10T16:22:02.307Z,49.15
2018-11-10T16:24:42.801Z,48.02
2018-11-10T16:27:22.264Z,42.65
2018-11-10T16:30:03.079Z,45.83
2018-11-10T16:32:42.973Z,45.85
2018-11-10T16:35:24.214Z,44.33
2018-11-10T16:37:59.982Z,51.90
2018-11-10T16:40:38.798Z,42.67
2018-11-10T16:43:20.690Z,47.80
2018-11-10T16:45:59.481Z,47.67
2018-11-10T16:48:37.522Z,49.50
2018-11-10T16:51:17.788Z,50.38
2018-11-10T16:53:56.630Z,49.23
2018-11-10T16:56:36.473Z,46.35
2018-11-10T16:59:16.630Z,53.23
2018-11-10T17:01:53.589Z,51.58
2018-11-10T17:04:36.629Z,47.45
2018-11-10T17:07:14.211Z,48.50
2018-11-10T17:09:55.552Z,44.73
2018-11-10T17:12:35.569Z,39.03
2018-11-10T17:15:14.714Z,42.73
2018-11-10T17:17:53.729Z,36.88
2018-11-10T17:20:33.270Z,41.83
2018-11-10T17:23:13.360Z,48.40
2018-11-10T17:25:53.478Z,50.15
2018-11-10T17:28:33.024Z,49.80
2018-11-10T17:31:12.860Z,49.77
2018-11-10T17:33:52.326Z,45.48
2018-11-10T17:36:32.617Z,48.83
2018-11-10T17:39:12.948Z,40.58
2018-11-10T17:41:51.533Z,42.25
2018-11-10T17:44:31.669Z,51.73
2018-11-10T17:47:10.854Z,49.45
2018-11-10T17:49:50.497Z,48.10
2018-11-10T17:52:29.550Z,50.88
2018-11-10T17:55:09.906Z,37.48
2018-11-10T17:57:43.180Z,50.85
2018-11-10T18:00:25.364Z,41.10
2018-11-10T18:03:04.145Z,42.53
2018-11-10T18:05:48.047Z,44.03
2018-11-10T18:08:27.591Z,46.98
2018-11-10T18:11:07.854Z,41.08
2018-11-10T18:13:46.630Z,43.50
2018-11-10T18:16:26.628Z,39.35
2018-11-10T18:19:06.708Z,45.85
2018-11-10T18:21:46.005Z,37.45
2018-11-10T18:24:26.411Z,44.95
2018-11-10T18:27:01.062Z,53.87
2018-11-10T18:29:40.446Z,46.30
2018-11-10T18:32:21.043Z,45.78
2018-11-10T18:35:00.529Z,54.15
2018-11-10T18:37:40.570Z,48.50
2018-11-10T18:40:20.359Z,49.35
2018-11-10T18:42:59.080Z,42.25
2018-11-10T18:45:39.944Z,44.15
2018-11-10T18:48:19.686Z,40.45
2018-11-10T18:50:58.839Z,44.65
2018-11-10T18:53:39.241Z,48.60
2018-11-10T18:56:20.909Z,48.48
2018-11-10T18:59:02.176Z,40.00
2018-11-10T19:01:41.422Z,37.55
2018-11-10T19:04:20.486Z,45.08
2018-11-10T19:07:00.001Z,40.00
2018-11-10T19:09:40.692Z,42.75
2018-11-10T19:12:20.805Z,45.52
2018-11-10T19:15:01.576Z,45.25
2018-11-10T19:17:40.418Z,44.25
2018-11-10T19:20:21.204Z,38.75
2018-11-10T19:23:01.302Z,41.20
2018-11-10T19:25:40.512Z,51.35
2018-11-10T19:28:20.582Z,42.10
2018-11-10T19:31:00.100Z,44.38
2018-11-10T19:33:40.538Z,35.05
2018-11-10T19:36:18.531Z,41.95
2018-11-10T19:39:00.544Z,38.38
2018-11-10T19:41:37.287Z,42.67
2018-11-10T19:44:16.527Z,45.98
2018-11-10T19:46:53.993Z,40.60
2018-11-10T19:49:31.991Z,43.38
2018-11-10T19:52:13.568Z,42.95
2018-11-10T19:54:54.147Z,39.75
2018-11-10T19:57:33.112Z,36.53
2018-11-10T20:00:12.405Z,39.45
2018-11-10T20:02:53.545Z,37.75
2018-11-10T20:05:33.312Z,40.60
2018-11-10T20:08:13.103Z,38.15
2018-11-10T20:10:53.044Z,40.30
2018-11-10T20:13:32.635Z,39.83
2018-11-10T20:16:12.026Z,45.05
2018-11-10T20:18:50.703Z,41.02
2018-11-10T20:21:30.585Z,46.28
2018-11-10T20:24:09.688Z,49.08
2018-11-10T20:26:50.468Z,46.33
2018-11-10T20:29:30.083Z,44.38
2018-11-10T20:32:11.050Z,43.35
2018-11-10T20:34:38.793Z,36.63
2018-11-10T20:37:20.331Z,42.35
2018-11-10T20:39:58.849Z,45.75
2018-11-10T20:42:26.870Z,43.17
2018-11-10T20:45:03.568Z,46.40
2018-11-10T20:47:40.373Z,39.03
2018-11-10T20:50:20.216Z,42.67
2018-11-10T20:53:00.532Z,44.20
2018-11-10T20:55:38.720Z,40.67
2018-11-10T20:58:18.162Z,37.78
2018-11-10T21:00:56.391Z,43.40
2018-11-10T21:03:35.522Z,37.08
2018-11-10T21:06:15.065Z,36.73
2018-11-10T21:08:56.239Z,39.40
2018-11-10T21:11:36.544Z,39.65
2018-11-10T21:14:16.263Z,45.12
2018-11-10T21:16:55.881Z,44.18
2018-11-10T21:19:36.196Z,33.83
2018-11-10T21:22:18.862Z,34.53
2018-11-10T21:24:58.930Z,40.52
2018-11-10T21:27:41.770Z,37.60
2018-11-10T21:30:23.512Z,34.33
2018-11-10T21:33:03.952Z,42.60
2018-11-10T21:35:42.053Z,36.28
2018-11-10T21:38:22.761Z,39.08
2018-11-10T21:41:02.305Z,38.90
2018-11-10T21:43:46.652Z,41.83
2018-11-10T21:46:24.117Z,36.03
2018-11-10T21:49:04.609Z,38.85
2018-11-10T21:51:40.714Z,38.15
2018-11-10T21:54:20.706Z,32.23
2018-11-10T21:57:00.598Z,36.15
2018-11-10T21:59:43.338Z,33.88
2018-11-10T22:02:22.913Z,31.23
2018-11-10T22:05:03.400Z,29.80
2018-11-10T22:07:43.191Z,35.28
2018-11-10T22:10:25.230Z,27.52
2018-11-10T22:13:03.997Z,32.42
2018-11-10T22:15:43.271Z,24.98
2018-11-10T22:18:23.330Z,30.12
2018-11-10T22:21:03.180Z,29.80
2018-11-10T22:23:42.964Z,38.15
2018-11-10T22:26:23.381Z,30.85
2018-11-10T22:29:02.097Z,34.67
2018-11-10T22:31:43.062Z,29.85
2018-11-10T22:34:24.179Z,30.75
2018-11-10T22:37:04.969Z,30.90
2018-11-10T22:39:44.362Z,24.90
2018-11-10T22:42:23.864Z,31.37
2018-11-10T22:45:03.392Z,31.30
2018-11-10T22:47:43.466Z,29.07
2018-11-10T22:50:29.350Z,30.68
2018-11-10T22:53:10.093Z,28.50
2018-11-10T22:55:48.864Z,35.68
2018-11-10T22:58:28.053Z,28.62
2018-11-10T23:01:11.913Z,35.70
2018-11-10T23:03:53.008Z,30.55
2018-11-10T23:06:31.474Z,31.80
2018-11-10T23:09:12.888Z,32.05
2018-11-10T23:11:51.607Z,34.35
2018-11-10T23:14:30.373Z,35.28
2018-11-10T23:17:08.442Z,30.65
2018-11-10T23:19:48.329Z,33.33
2018-11-10T23:22:28.455Z,28.52
2018-11-10T23:25:11.340Z,28.47
2018-11-10T23:27:50.356Z,25.20
2018-11-10T23:30:29.005Z,29.80
2018-11-10T23:33:06.630Z,33.38
2018-11-10T23:35:42.855Z,25.88
2018-11-10T23:38:23.346Z,33.28
2018-11-10T23:41:03.313Z,31.15
2018-11-10T23:43:42.480Z,31.62
2018-11-10T23:46:22.442Z,30.85
2018-11-10T23:49:01.363Z,35.83
2018-11-10T23:51:40.880Z,40.80
2018-11-10T23:54:19.570Z,30.57
2018-11-10T23:57:00.286Z,34.38
2018-11-10T23:59:39.528Z,31.35
